Virden, IL

4:38 PM CDT on October 20, 2014 (GMT -0500)
Harris Photography | Change Station
CLOSE
Current Station
Personal Weather Station
Location: Virden, IL
Elevation: 679 ft
Nearby Weather Stations

Elev 679 ft 39.50 °N, 89.77 °W | Updated 10 seconds ago

Clear
Clear
69.1 °F
Feels Like 69.1 °F
N
8.3
Wind Variable Wind from NW
Gusts 9.2 mph

Today
High -- | Low -- °F
--% Chance of Precip.
Yesterday
High -- | Low -- °F
Precip. -- in
7:14 AM 6:12 PM
Waning Crescent, 9% visible
Pressure 29.93 in
Visibility 10.0 miles
Clouds Clear
Dew Point 52 °F
Humidity 55%
Rainfall 0.00 in
Snow Depth Not available.
UV 0.0 out of 12
Pollen 1.80 out of 12
Ozone Good
PM2.5 Good
Flu Activity No Activity
METAR KTAZ 202115Z AUTO 30012KT 10SM CLR 20/05 A2993 RMK AO2

More Conditions Fewer Conditions

Pressure 29.93 in
Visibility 10.0 miles
Clouds Clear
Dew Point 52 °F
Humidity 55%
Rainfall 0.00 in
Snow Depth Not available.
UV 0.0 out of 12
Pollen 1.80 out of 12
Ozone Good
PM2.5 Good
Flu Activity No Activity
METAR KTAZ 202115Z AUTO 30012KT 10SM CLR 20/05 A2993 RMK AO2

More Conditions Fewer Conditions

10-Day Weather Forecast

Almanac

Astronomy

Oct. 20, 2014 Rise Set
Actual Time 7:14 AM CDT 6:12 PM CDT
Civil Twilight 6:46 AM CDT 6:40 PM CDT
Nautical Twilight 6:15 AM CDT 7:11 PM CDT
Astronomical Twilight 5:44 AM CDT 7:42 PM CDT
Moon 4:03 AM CDT 4:34 PM CDT
Length of Visible Light 11h 53m
Length of Day
10h 58m
Waning Crescent, 9% of the Moon is Illuminated
Today
Waning Crescent
Oct 23
New
Oct 30
First Quarter
Nov 6
Full
Nov 14
Last Quarter

Today's Extremes

State Highs State Lows

Community

WunderPhotos

Upload Photos

1,763,525 photos uploaded!

WunderBlogs® & News

Nearby

Air Quality

  Air Quality AQ Index Pollutant
Yesterday Good
PM2.5
Yesterday Good
OZONE
Current Good
PM2.5
Current Good
OZONE
Monday Good
PM2.5
Tuesday Good
PM2.5
Wednesday Good
PM2.5

Snow Depth

Station Depth Elevation
No new snow has been reported.

Earthquake Activity

City Distance Mag. Time & Date
No recent earthquake activity has been reported nearby.
Minimum magnitude displayed is 2.5.

Coastal Water Temperatures

Place Temperature
No Stations Reporting

Nearby Weather Stations